sensor_id;sensor_type;location;lat;lon;timestamp;pressure;altitude;pressure_sealevel;temperature;humidity
45050;BME280;61798;48.048;-1.928;2023-04-27T00:00:56;100856.69;;;8.53;100.00
45050;BME280;61798;48.048;-1.928;2023-04-27T00:03:02;100848.13;;;8.26;100.00
45050;BME280;61798;48.048;-1.928;2023-04-27T00:05:11;100836.88;;;8.48;100.00
45050;BME280;61798;48.048;-1.928;2023-04-27T00:07:17;100852.34;;;8.61;100.00
45050;BME280;61798;48.048;-1.928;2023-04-27T00:09:24;100849.66;;;8.61;100.00
45050;BME280;61798;48.048;-1.928;2023-04-27T00:11:30;100833.47;;;8.62;100.00
45050;BME280;61798;48.048;-1.928;2023-04-27T00:13:37;100843.13;;;8.23;100.00
45050;BME280;61798;48.048;-1.928;2023-04-27T00:15:43;100813.88;;;7.81;100.00
45050;BME280;61798;48.048;-1.928;2023-04-27T00:17:49;100861.16;;;8.12;100.00
45050;BME280;61798;48.048;-1.928;2023-04-27T00:19:57;100861.13;;;8.29;100.00
45050;BME280;61798;48.048;-1.928;2023-04-27T00:22:03;100857.34;;;8.07;100.00
45050;BME280;61798;48.048;-1.928;2023-04-27T00:24:10;100847.19;;;7.93;100.00
45050;BME280;61798;48.048;-1.928;2023-04-27T00:26:15;100861.53;;;7.92;100.00
45050;BME280;61798;48.048;-1.928;2023-04-27T00:28:21;100872.88;;;8.03;100.00
45050;BME280;61798;48.048;-1.928;2023-04-27T00:30:28;100848.38;;;7.91;100.00
45050;BME280;61798;48.048;-1.928;2023-04-27T00:32:34;100874.00;;;8.09;100.00
45050;BME280;61798;48.048;-1.928;2023-04-27T00:34:41;100856.88;;;7.95;100.00
45050;BME280;61798;48.048;-1.928;2023-04-27T00:36:47;100843.03;;;7.91;100.00
45050;BME280;61798;48.048;-1.928;2023-04-27T00:38:54;100854.09;;;8.28;100.00
45050;BME280;61798;48.048;-1.928;2023-04-27T00:41:04;100863.44;;;8.32;100.00
45050;BME280;61798;48.048;-1.928;2023-04-27T00:43:10;100846.41;;;8.33;100.00
45050;BME280;61798;48.048;-1.928;2023-04-27T00:45:16;100861.69;;;8.08;100.00
45050;BME280;61798;48.048;-1.928;2023-04-27T00:47:22;100866.34;;;8.14;100.00
45050;BME280;61798;48.048;-1.928;2023-04-27T00:49:29;100839.97;;;8.19;100.00
45050;BME280;61798;48.048;-1.928;2023-04-27T00:51:35;100844.22;;;8.37;100.00
45050;BME280;61798;48.048;-1.928;2023-04-27T00:53:42;100850.81;;;8.18;100.00
45050;BME280;61798;48.048;-1.928;2023-04-27T00:55:48;100848.16;;;8.09;100.00
45050;BME280;61798;48.048;-1.928;2023-04-27T00:57:54;100855.34;;;8.00;100.00
45050;BME280;61798;48.048;-1.928;2023-04-27T01:00:01;100834.31;;;8.06;100.00
45050;BME280;61798;48.048;-1.928;2023-04-27T01:02:11;100832.50;;;8.06;100.00
45050;BME280;61798;48.048;-1.928;2023-04-27T01:04:18;100857.00;;;8.10;100.00
45050;BME280;61798;48.048;-1.928;2023-04-27T01:06:24;100840.47;;;8.23;100.00
45050;BME280;61798;48.048;-1.928;2023-04-27T01:08:31;100825.66;;;8.12;100.00
45050;BME280;61798;48.048;-1.928;2023-04-27T01:10:37;100847.47;;;8.24;100.00
45050;BME280;61798;48.048;-1.928;2023-04-27T01:12:43;100812.13;;;8.05;100.00
45050;BME280;61798;48.048;-1.928;2023-04-27T01:14:50;100819.13;;;8.14;100.00
45050;BME280;61798;48.048;-1.928;2023-04-27T01:16:56;100837.44;;;8.26;100.00
45050;BME280;61798;48.048;-1.928;2023-04-27T01:19:04;100851.41;;;8.36;100.00
45050;BME280;61798;48.048;-1.928;2023-04-27T01:21:10;100853.75;;;8.40;100.00
45050;BME280;61798;48.048;-1.928;2023-04-27T01:23:17;100831.38;;;8.41;100.00
45050;BME280;61798;48.048;-1.928;2023-04-27T01:25:23;100838.69;;;8.47;100.00
45050;BME280;61798;48.048;-1.928;2023-04-27T01:27:29;100833.00;;;8.50;100.00
45050;BME280;61798;48.048;-1.928;2023-04-27T01:29:36;100831.16;;;8.51;100.00
45050;BME280;61798;48.048;-1.928;2023-04-27T01:31:41;100819.66;;;8.50;100.00
45050;BME280;61798;48.048;-1.928;2023-04-27T01:33:48;100824.50;;;8.46;100.00
45050;BME280;61798;48.048;-1.928;2023-04-27T01:35:54;100820.28;;;8.52;100.00
45050;BME280;61798;48.048;-1.928;2023-04-27T01:38:00;100830.34;;;8.50;100.00
45050;BME280;61798;48.048;-1.928;2023-04-27T01:40:08;100774.72;;;8.22;100.00
45050;BME280;61798;48.048;-1.928;2023-04-27T01:42:14;100815.13;;;8.51;100.00
45050;BME280;61798;48.048;-1.928;2023-04-27T01:44:21;100827.97;;;8.55;100.00
45050;BME280;61798;48.048;-1.928;2023-04-27T01:46:28;100818.69;;;8.43;100.00
45050;BME280;61798;48.048;-1.928;2023-04-27T01:48:35;100823.66;;;8.46;100.00
45050;BME280;61798;48.048;-1.928;2023-04-27T01:50:41;100833.50;;;8.45;100.00
45050;BME280;61798;48.048;-1.928;2023-04-27T01:52:47;100841.97;;;8.57;100.00
45050;BME280;61798;48.048;-1.928;2023-04-27T01:54:54;100836.31;;;8.61;100.00
45050;BME280;61798;48.048;-1.928;2023-04-27T01:57:00;100844.06;;;8.79;100.00
45050;BME280;61798;48.048;-1.928;2023-04-27T01:59:08;100844.91;;;8.80;100.00
45050;BME280;61798;48.048;-1.928;2023-04-27T02:01:14;100839.91;;;8.76;100.00
45050;BME280;61798;48.048;-1.928;2023-04-27T02:03:19;100835.59;;;8.75;100.00
45050;BME280;61798;48.048;-1.928;2023-04-27T02:05:26;100794.94;;;8.48;100.00
45050;BME280;61798;48.048;-1.928;2023-04-27T02:07:31;100834.06;;;8.73;100.00
45050;BME280;61798;48.048;-1.928;2023-04-27T02:09:38;100819.28;;;8.62;100.00
45050;BME280;61798;48.048;-1.928;2023-04-27T02:11:44;100827.38;;;8.77;100.00
45050;BME280;61798;48.048;-1.928;2023-04-27T02:13:51;100798.84;;;8.37;100.00
45050;BME280;61798;48.048;-1.928;2023-04-27T02:15:57;100821.25;;;8.68;100.00
45050;BME280;61798;48.048;-1.928;2023-04-27T02:18:04;100818.28;;;8.63;100.00
45050;BME280;61798;48.048;-1.928;2023-04-27T02:20:10;100816.44;;;8.63;100.00
45050;BME280;61798;48.048;-1.928;2023-04-27T02:22:16;100821.25;;;8.68;100.00
45050;BME280;61798;48.048;-1.928;2023-04-27T02:24:23;100819.13;;;8.63;100.00
45050;BME280;61798;48.048;-1.928;2023-04-27T02:26:29;100824.06;;;8.75;100.00
45050;BME280;61798;48.048;-1.928;2023-04-27T02:28:35;100807.94;;;8.60;100.00
45050;BME280;61798;48.048;-1.928;2023-04-27T02:30:41;100787.75;;;8.49;100.00
45050;BME280;61798;48.048;-1.928;2023-04-27T02:32:48;100810.56;;;8.68;100.00
45050;BME280;61798;48.048;-1.928;2023-04-27T02:34:54;100815.09;;;8.59;100.00
45050;BME280;61798;48.048;-1.928;2023-04-27T02:37:01;100811.75;;;8.65;100.00
45050;BME280;61798;48.048;-1.928;2023-04-27T02:39:08;100780.34;;;8.35;100.00
45050;BME280;61798;48.048;-1.928;2023-04-27T02:41:13;100785.09;;;8.49;100.00
45050;BME280;61798;48.048;-1.928;2023-04-27T02:43:21;100805.97;;;8.45;100.00
45050;BME280;61798;48.048;-1.928;2023-04-27T02:45:27;100791.31;;;8.41;100.00
45050;BME280;61798;48.048;-1.928;2023-04-27T02:47:34;100825.28;;;8.64;100.00
45050;BME280;61798;48.048;-1.928;2023-04-27T02:49:41;100829.50;;;8.50;100.00
45050;BME280;61798;48.048;-1.928;2023-04-27T02:51:47;100785.84;;;8.34;100.00
45050;BME280;61798;48.048;-1.928;2023-04-27T02:53:54;100798.16;;;8.43;100.00
45050;BME280;61798;48.048;-1.928;2023-04-27T02:56:00;100799.91;;;8.28;100.00
45050;BME280;61798;48.048;-1.928;2023-04-27T02:58:06;100824.38;;;8.40;100.00
45050;BME280;61798;48.048;-1.928;2023-04-27T03:00:13;100832.91;;;8.35;100.00
45050;BME280;61798;48.048;-1.928;2023-04-27T03:02:19;100817.16;;;8.40;100.00
45050;BME280;61798;48.048;-1.928;2023-04-27T03:04:26;100802.41;;;8.21;100.00
45050;BME280;61798;48.048;-1.928;2023-04-27T03:06:32;100841.00;;;8.50;100.00
45050;BME280;61798;48.048;-1.928;2023-04-27T03:08:39;100821.13;;;8.61;100.00
45050;BME280;61798;48.048;-1.928;2023-04-27T03:10:45;100827.63;;;8.59;100.00
45050;BME280;61798;48.048;-1.928;2023-04-27T03:12:51;100813.03;;;8.38;100.00
45050;BME280;61798;48.048;-1.928;2023-04-27T03:14:57;100830.88;;;8.37;100.00
45050;BME280;61798;48.048;-1.928;2023-04-27T03:17:04;100823.50;;;7.99;100.00
45050;BME280;61798;48.048;-1.928;2023-04-27T03:19:11;100804.00;;;7.90;100.00
45050;BME280;61798;48.048;-1.928;2023-04-27T03:21:16;100809.56;;;7.80;100.00
45050;BME280;61798;48.048;-1.928;2023-04-27T03:23:24;100830.69;;;7.90;100.00
45050;BME280;61798;48.048;-1.928;2023-04-27T03:25:29;100832.50;;;7.98;100.00
45050;BME280;61798;48.048;-1.928;2023-04-27T03:27:35;100806.69;;;7.81;100.00
45050;BME280;61798;48.048;-1.928;2023-04-27T03:29:42;100819.19;;;7.89;100.00
45050;BME280;61798;48.048;-1.928;2023-04-27T03:31:48;100796.25;;;7.63;100.00
45050;BME280;61798;48.048;-1.928;2023-04-27T03:33:55;100773.25;;;7.54;100.00
45050;BME280;61798;48.048;-1.928;2023-04-27T03:36:02;100818.53;;;7.96;100.00
45050;BME280;61798;48.048;-1.928;2023-04-27T03:38:09;100819.84;;;8.00;100.00
45050;BME280;61798;48.048;-1.928;2023-04-27T03:40:17;100819.00;;;7.99;100.00
45050;BME280;61798;48.048;-1.928;2023-04-27T03:42:22;100825.56;;;7.80;100.00
45050;BME280;61798;48.048;-1.928;2023-04-27T03:44:28;100813.56;;;7.76;100.00
45050;BME280;61798;48.048;-1.928;2023-04-27T03:46:36;100823.22;;;7.77;100.00
45050;BME280;61798;48.048;-1.928;2023-04-27T03:48:43;100776.41;;;7.49;100.00
45050;BME280;61798;48.048;-1.928;2023-04-27T03:50:51;100810.09;;;7.58;100.00
45050;BME280;61798;48.048;-1.928;2023-04-27T03:52:58;100794.44;;;7.38;100.00
45050;BME280;61798;48.048;-1.928;2023-04-27T03:55:05;100812.75;;;7.50;100.00
45050;BME280;61798;48.048;-1.928;2023-04-27T03:57:11;100809.44;;;7.48;100.00
45050;BME280;61798;48.048;-1.928;2023-04-27T03:59:18;100804.59;;;7.35;100.00
45050;BME280;61798;48.048;-1.928;2023-04-27T04:01:24;100807.75;;;7.38;100.00
45050;BME280;61798;48.048;-1.928;2023-04-27T04:03:32;100820.59;;;7.43;100.00
45050;BME280;61798;48.048;-1.928;2023-04-27T04:05:38;100805.25;;;7.37;100.00
45050;BME280;61798;48.048;-1.928;2023-04-27T04:07:45;100798.94;;;7.46;100.00
45050;BME280;61798;48.048;-1.928;2023-04-27T04:09:50;100795.28;;;7.39;100.00
45050;BME280;61798;48.048;-1.928;2023-04-27T04:11:56;100791.09;;;7.45;100.00
45050;BME280;61798;48.048;-1.928;2023-04-27T04:14:03;100778.94;;;7.25;100.00
45050;BME280;61798;48.048;-1.928;2023-04-27T04:16:09;100798.94;;;7.38;100.00
45050;BME280;61798;48.048;-1.928;2023-04-27T04:18:16;100791.28;;;7.43;100.00
45050;BME280;61798;48.048;-1.928;2023-04-27T04:20:22;100788.75;;;7.33;100.00
45050;BME280;61798;48.048;-1.928;2023-04-27T04:22:30;100778.94;;;7.17;100.00
45050;BME280;61798;48.048;-1.928;2023-04-27T04:24:37;100775.13;;;7.19;100.00
45050;BME280;61798;48.048;-1.928;2023-04-27T04:26:45;100771.78;;;7.17;100.00
45050;BME280;61798;48.048;-1.928;2023-04-27T04:28:53;100753.13;;;7.01;100.00
45050;BME280;61798;48.048;-1.928;2023-04-27T04:31:01;100757.78;;;7.15;100.00
45050;BME280;61798;48.048;-1.928;2023-04-27T04:33:10;100772.28;;;7.21;100.00
45050;BME280;61798;48.048;-1.928;2023-04-27T04:35:17;100737.66;;;6.96;100.00
45050;BME280;61798;48.048;-1.928;2023-04-27T04:37:25;100769.09;;;7.26;100.00
45050;BME280;61798;48.048;-1.928;2023-04-27T04:39:32;100773.94;;;7.30;100.00
45050;BME280;61798;48.048;-1.928;2023-04-27T04:41:39;100772.28;;;7.29;100.00
45050;BME280;61798;48.048;-1.928;2023-04-27T04:43:46;100775.97;;;7.20;100.00
45050;BME280;61798;48.048;-1.928;2023-04-27T04:45:55;100779.28;;;7.22;100.00
45050;BME280;61798;48.048;-1.928;2023-04-27T04:48:02;100766.63;;;7.16;100.00
45050;BME280;61798;48.048;-1.928;2023-04-27T04:50:09;100757.28;;;7.03;100.00
45050;BME280;61798;48.048;-1.928;2023-04-27T04:52:17;100768.28;;;7.34;100.00
45050;BME280;61798;48.048;-1.928;2023-04-27T04:54:24;100781.28;;;7.28;100.00
45050;BME280;61798;48.048;-1.928;2023-04-27T04:56:31;100770.13;;;7.08;100.00
45050;BME280;61798;48.048;-1.928;2023-04-27T04:58:39;100777.09;;;7.09;100.00
45050;BME280;61798;48.048;-1.928;2023-04-27T05:00:46;100799.94;;;7.20;100.00
45050;BME280;61798;48.048;-1.928;2023-04-27T05:02:53;100792.25;;;7.17;100.00
45050;BME280;61798;48.048;-1.928;2023-04-27T05:05:00;100761.94;;;7.01;100.00
45050;BME280;61798;48.048;-1.928;2023-04-27T05:07:07;100751.97;;;7.03;100.00
45050;BME280;61798;48.048;-1.928;2023-04-27T05:09:14;100764.31;;;7.04;100.00
45050;BME280;61798;48.048;-1.928;2023-04-27T05:11:21;100820.75;;;7.33;100.00
45050;BME280;61798;48.048;-1.928;2023-04-27T05:13:28;100813.94;;;7.30;100.00
45050;BME280;61798;48.048;-1.928;2023-04-27T05:15:36;100812.59;;;7.35;100.00
45050;BME280;61798;48.048;-1.928;2023-04-27T05:17:43;100813.09;;;7.30;100.00
45050;BME280;61798;48.048;-1.928;2023-04-27T05:19:50;100806.91;;;7.21;100.00
45050;BME280;61798;48.048;-1.928;2023-04-27T05:21:57;100811.91;;;7.33;100.00
45050;BME280;61798;48.048;-1.928;2023-04-27T05:24:04;100790.94;;;7.21;100.00
45050;BME280;61798;48.048;-1.928;2023-04-27T05:26:16;100809.94;;;7.35;100.00
45050;BME280;61798;48.048;-1.928;2023-04-27T05:28:23;100805.94;;;7.30;100.00
45050;BME280;61798;48.048;-1.928;2023-04-27T05:30:30;100806.78;;;7.39;100.00
45050;BME280;61798;48.048;-1.928;2023-04-27T05:32:36;100804.94;;;7.40;100.00
45050;BME280;61798;48.048;-1.928;2023-04-27T05:34:43;100805.75;;;7.57;100.00
45050;BME280;61798;48.048;-1.928;2023-04-27T05:36:50;100816.91;;;7.69;100.00
45050;BME280;61798;48.048;-1.928;2023-04-27T05:38:57;100794.22;;;7.57;100.00
45050;BME280;61798;48.048;-1.928;2023-04-27T05:41:04;100797.44;;;7.52;100.00
45050;BME280;61798;48.048;-1.928;2023-04-27T05:43:11;100819.56;;;7.69;100.00
45050;BME280;61798;48.048;-1.928;2023-04-27T05:45:19;100827.56;;;7.78;100.00
45050;BME280;61798;48.048;-1.928;2023-04-27T05:47:27;100819.56;;;7.69;100.00
45050;BME280;61798;48.048;-1.928;2023-04-27T05:49:32;100792.03;;;7.69;100.00
45050;BME280;61798;48.048;-1.928;2023-04-27T05:51:38;100795.56;;;7.69;100.00
45050;BME280;61798;48.048;-1.928;2023-04-27T05:53:44;100815.03;;;7.87;100.00
45050;BME280;61798;48.048;-1.928;2023-04-27T05:55:50;100829.84;;;7.98;100.00
45050;BME280;61798;48.048;-1.928;2023-04-27T05:57:56;100811.66;;;8.01;100.00
45050;BME280;61798;48.048;-1.928;2023-04-27T06:00:04;100817.66;;;8.12;100.00
45050;BME280;61798;48.048;-1.928;2023-04-27T06:02:16;100822.94;;;8.20;100.00
45050;BME280;61798;48.048;-1.928;2023-04-27T06:04:23;100803.44;;;8.20;100.00
45050;BME280;61798;48.048;-1.928;2023-04-27T06:06:33;100812.91;;;8.22;100.00
45050;BME280;61798;48.048;-1.928;2023-04-27T06:08:41;100818.69;;;8.43;100.00
45050;BME280;61798;48.048;-1.928;2023-04-27T06:10:49;100828.53;;;8.42;100.00
45050;BME280;61798;48.048;-1.928;2023-04-27T06:12:56;100827.69;;;8.42;100.00
45050;BME280;61798;48.048;-1.928;2023-04-27T06:15:04;100834.13;;;8.56;100.00
45050;BME280;61798;48.048;-1.928;2023-04-27T06:17:13;100815.97;;;8.51;100.00
45050;BME280;61798;48.048;-1.928;2023-04-27T06:19:20;100818.59;;;8.60;100.00
45050;BME280;61798;48.048;-1.928;2023-04-27T06:21:27;100813.44;;;8.58;100.00
45050;BME280;61798;48.048;-1.928;2023-04-27T06:23:34;100769.34;;;8.30;100.00
45050;BME280;61798;48.048;-1.928;2023-04-27T06:25:42;100799.22;;;8.57;100.00
45050;BME280;61798;48.048;-1.928;2023-04-27T06:27:58;100799.88;;;8.68;100.00
45050;BME280;61798;48.048;-1.928;2023-04-27T06:30:07;100788.22;;;8.61;100.00
45050;BME280;61798;48.048;-1.928;2023-04-27T06:32:15;100803.03;;;8.72;100.00
45050;BME280;61798;48.048;-1.928;2023-04-27T06:34:24;100813.53;;;8.73;100.00
45050;BME280;61798;48.048;-1.928;2023-04-27T06:36:32;100815.22;;;8.74;100.00
45050;BME280;61798;48.048;-1.928;2023-04-27T06:38:44;100816.22;;;8.73;100.00
45050;BME280;61798;48.048;-1.928;2023-04-27T06:40:54;100822.75;;;8.71;100.00
45050;BME280;61798;48.048;-1.928;2023-04-27T06:43:07;100820.88;;;8.80;100.00
45050;BME280;61798;48.048;-1.928;2023-04-27T06:45:16;100826.13;;;8.88;100.00
45050;BME280;61798;48.048;-1.928;2023-04-27T06:47:32;100823.06;;;8.99;100.00
45050;BME280;61798;48.048;-1.928;2023-04-27T06:49:40;100816.69;;;9.01;100.00
45050;BME280;61798;48.048;-1.928;2023-04-27T06:51:48;100813.84;;;9.02;100.00
45050;BME280;61798;48.048;-1.928;2023-04-27T06:54:00;100804.91;;;8.95;100.00
45050;BME280;61798;48.048;-1.928;2023-04-27T06:56:16;100806.78;;;9.09;100.00
45050;BME280;61798;48.048;-1.928;2023-04-27T06:58:26;100812.38;;;9.23;100.00
45050;BME280;61798;48.048;-1.928;2023-04-27T07:00:36;100794.88;;;9.12;100.00
45050;BME280;61798;48.048;-1.928;2023-04-27T07:02:56;100788.47;;;9.22;100.00
45050;BME280;61798;48.048;-1.928;2023-04-27T07:05:02;100815.34;;;9.44;100.00
45050;BME280;61798;48.048;-1.928;2023-04-27T07:07:08;100788.19;;;9.16;100.00
45050;BME280;61798;48.048;-1.928;2023-04-27T07:09:27;100811.88;;;9.43;100.00
45050;BME280;61798;48.048;-1.928;2023-04-27T07:11:35;100791.44;;;9.27;100.00
45050;BME280;61798;48.048;-1.928;2023-04-27T07:13:44;100806.31;;;9.45;100.00
45050;BME280;61798;48.048;-1.928;2023-04-27T07:15:58;100801.50;;;9.40;100.00
45050;BME280;61798;48.048;-1.928;2023-04-27T07:18:04;100805.97;;;9.48;100.00
45050;BME280;61798;48.048;-1.928;2023-04-27T07:20:11;100802.25;;;9.34;100.00
45050;BME280;61798;48.048;-1.928;2023-04-27T07:22:20;100804.38;;;9.38;100.00
45050;BME280;61798;48.048;-1.928;2023-04-27T07:24:27;100811.41;;;9.39;100.00
45050;BME280;61798;48.048;-1.928;2023-04-27T07:26:33;100779.63;;;9.21;100.00
45050;BME280;61798;48.048;-1.928;2023-04-27T07:28:42;100801.56;;;9.55;100.00
45050;BME280;61798;48.048;-1.928;2023-04-27T07:30:51;100804.13;;;9.48;100.00
45050;BME280;61798;48.048;-1.928;2023-04-27T07:32:58;100790.88;;;9.55;100.00
45050;BME280;61798;48.048;-1.928;2023-04-27T07:35:15;100757.16;;;9.46;100.00
45050;BME280;61798;48.048;-1.928;2023-04-27T07:37:22;100770.47;;;9.54;100.00
45050;BME280;61798;48.048;-1.928;2023-04-27T07:39:29;100774.81;;;9.55;100.00
45050;BME280;61798;48.048;-1.928;2023-04-27T07:41:38;100782.09;;;9.61;100.00
45050;BME280;61798;48.048;-1.928;2023-04-27T07:43:47;100778.00;;;9.35;100.00
45050;BME280;61798;48.048;-1.928;2023-04-27T07:45:58;100791.13;;;9.45;100.00
45050;BME280;61798;48.048;-1.928;2023-04-27T07:48:07;100796.94;;;9.64;100.00
45050;BME280;61798;48.048;-1.928;2023-04-27T07:50:17;100773.91;;;9.63;100.00
45050;BME280;61798;48.048;-1.928;2023-04-27T07:52:30;100789.97;;;9.78;100.00
45050;BME280;61798;48.048;-1.928;2023-04-27T07:54:39;100786.06;;;9.81;100.00
45050;BME280;61798;48.048;-1.928;2023-04-27T07:56:50;100779.06;;;9.80;100.00
45050;BME280;61798;48.048;-1.928;2023-04-27T07:59:00;100766.50;;;9.80;100.00
45050;BME280;61798;48.048;-1.928;2023-04-27T08:01:08;100777.59;;;9.77;100.00
45050;BME280;61798;48.048;-1.928;2023-04-27T08:03:17;100778.59;;;9.76;100.00
45050;BME280;61798;48.048;-1.928;2023-04-27T08:05:27;100767.63;;;9.71;100.00
45050;BME280;61798;48.048;-1.928;2023-04-27T08:07:37;100766.25;;;9.75;100.00
45050;BME280;61798;48.048;-1.928;2023-04-27T08:09:49;100755.78;;;9.80;100.00
45050;BME280;61798;48.048;-1.928;2023-04-27T08:12:00;100768.09;;;9.90;100.00
45050;BME280;61798;48.048;-1.928;2023-04-27T08:14:11;100748.34;;;9.91;100.00
45050;BME280;61798;48.048;-1.928;2023-04-27T08:16:20;100749.88;;;10.00;100.00
45050;BME280;61798;48.048;-1.928;2023-04-27T08:18:44;100753.22;;;10.02;100.00
45050;BME280;61798;48.048;-1.928;2023-04-27T08:20:54;100746.22;;;9.86;100.00
45050;BME280;61798;48.048;-1.928;2023-04-27T08:23:12;100747.03;;;9.87;100.00
45050;BME280;61798;48.048;-1.928;2023-04-27T08:25:22;100750.66;;;9.79;100.00
45050;BME280;61798;48.048;-1.928;2023-04-27T08:27:30;100761.44;;;9.86;100.00
45050;BME280;61798;48.048;-1.928;2023-04-27T08:29:38;100746.28;;;9.93;100.00
45050;BME280;61798;48.048;-1.928;2023-04-27T08:31:58;100771.41;;;10.07;100.00
45050;BME280;61798;48.048;-1.928;2023-04-27T08:34:07;100754.22;;;10.01;100.00
45050;BME280;61798;48.048;-1.928;2023-04-27T08:36:14;100758.72;;;10.16;100.00
45050;BME280;61798;48.048;-1.928;2023-04-27T08:38:22;100741.38;;;10.12;100.00
45050;BME280;61798;48.048;-1.928;2023-04-27T08:40:34;100706.16;;;9.78;100.00
45050;BME280;61798;48.048;-1.928;2023-04-27T08:42:55;100732.63;;;9.88;100.00
45050;BME280;61798;48.048;-1.928;2023-04-27T08:45:06;100744.63;;;10.07;100.00
45050;BME280;61798;48.048;-1.928;2023-04-27T08:47:20;100750.13;;;10.21;100.00
45050;BME280;61798;48.048;-1.928;2023-04-27T08:49:27;100751.25;;;10.11;100.00
45050;BME280;61798;48.048;-1.928;2023-04-27T08:51:36;100751.72;;;10.15;100.00
45050;BME280;61798;48.048;-1.928;2023-04-27T08:53:49;100755.66;;;10.19;100.00
45050;BME280;61798;48.048;-1.928;2023-04-27T08:55:57;100742.75;;;10.08;100.00
45050;BME280;61798;48.048;-1.928;2023-04-27T08:58:04;100756.31;;;10.21;100.00
45050;BME280;61798;48.048;-1.928;2023-04-27T09:00:12;100732.16;;;10.14;100.00
45050;BME280;61798;48.048;-1.928;2023-04-27T09:02:19;100751.97;;;10.20;100.00
45050;BME280;61798;48.048;-1.928;2023-04-27T09:04:37;100748.09;;;10.23;100.00
45050;BME280;61798;48.048;-1.928;2023-04-27T09:06:46;100745.13;;;10.33;100.00
45050;BME280;61798;48.048;-1.928;2023-04-27T09:08:55;100726.47;;;10.24;100.00
45050;BME280;61798;48.048;-1.928;2023-04-27T09:11:02;100737.16;;;10.40;100.00
45050;BME280;61798;48.048;-1.928;2023-04-27T09:13:19;100740.09;;;10.45;100.00
45050;BME280;61798;48.048;-1.928;2023-04-27T09:15:26;100724.03;;;10.45;100.00
45050;BME280;61798;48.048;-1.928;2023-04-27T09:17:33;100746.91;;;10.63;100.00
45050;BME280;61798;48.048;-1.928;2023-04-27T09:19:39;100737.66;;;10.65;100.00
45050;BME280;61798;48.048;-1.928;2023-04-27T09:22:06;100728.53;;;10.60;100.00
45050;BME280;61798;48.048;-1.928;2023-04-27T09:24:17;100725.72;;;10.68;100.00
45050;BME280;61798;48.048;-1.928;2023-04-27T09:26:25;100729.88;;;10.71;100.00
45050;BME280;61798;48.048;-1.928;2023-04-27T09:28:48;100734.41;;;10.70;100.00
45050;BME280;61798;48.048;-1.928;2023-04-27T09:31:01;100742.13;;;10.80;100.00
45050;BME280;61798;48.048;-1.928;2023-04-27T09:33:12;100746.34;;;10.89;100.00
45050;BME280;61798;48.048;-1.928;2023-04-27T09:35:27;100728.84;;;10.94;100.00
45050;BME280;61798;48.048;-1.928;2023-04-27T09:37:41;100725.06;;;10.88;100.00
45050;BME280;61798;48.048;-1.928;2023-04-27T09:39:47;100722.59;;;10.86;100.00
45050;BME280;61798;48.048;-1.928;2023-04-27T09:41:57;100732.72;;;11.13;100.00
45050;BME280;61798;48.048;-1.928;2023-04-27T09:44:16;100721.59;;;11.16;100.00
45050;BME280;61798;48.048;-1.928;2023-04-27T09:46:25;100693.84;;;11.02;100.00
45050;BME280;61798;48.048;-1.928;2023-04-27T09:48:33;100732.72;;;11.42;100.00
45050;BME280;61798;48.048;-1.928;2023-04-27T09:50:43;100704.75;;;11.29;100.00
45050;BME280;61798;48.048;-1.928;2023-04-27T09:52:54;100733.72;;;11.41;100.00
45050;BME280;61798;48.048;-1.928;2023-04-27T09:55:14;100728.63;;;11.46;100.00
45050;BME280;61798;48.048;-1.928;2023-04-27T10:00:22;100733.03;;;11.61;100.00
45050;BME280;61798;48.048;-1.928;2023-04-27T10:02:40;100722.69;;;11.58;100.00
45050;BME280;61798;48.048;-1.928;2023-04-27T10:07:38;100734.72;;;11.69;100.00
45050;BME280;61798;48.048;-1.928;2023-04-27T10:09:49;100730.63;;;11.73;100.00
45050;BME280;61798;48.048;-1.928;2023-04-27T10:12:26;100715.78;;;11.84;100.00
45050;BME280;61798;48.048;-1.928;2023-04-27T10:14:32;100692.03;;;11.81;100.00
45050;BME280;61798;48.048;-1.928;2023-04-27T10:16:55;100696.13;;;11.77;100.00
45050;BME280;61798;48.048;-1.928;2023-04-27T10:19:08;100697.25;;;11.96;100.00
45050;BME280;61798;48.048;-1.928;2023-04-27T10:21:16;100691.66;;;11.91;100.00
45050;BME280;61798;48.048;-1.928;2023-04-27T10:23:25;100711.28;;;11.91;100.00
45050;BME280;61798;48.048;-1.928;2023-04-27T10:25:40;100707.41;;;12.01;100.00
45050;BME280;61798;48.048;-1.928;2023-04-27T10:28:00;100715.88;;;12.11;100.00
45050;BME280;61798;48.048;-1.928;2023-04-27T10:30:12;100712.34;;;12.04;100.00
45050;BME280;61798;48.048;-1.928;2023-04-27T10:32:26;100716.16;;;12.16;100.00
45050;BME280;61798;48.048;-1.928;2023-04-27T10:34:37;100684.31;;;12.13;100.00
45050;BME280;61798;48.048;-1.928;2023-04-27T10:36:44;100684.56;;;12.25;100.00
45050;BME280;61798;48.048;-1.928;2023-04-27T10:38:55;100708.47;;;12.13;100.00
45050;BME280;61798;48.048;-1.928;2023-04-27T10:41:03;100697.00;;;12.33;100.00
45050;BME280;61798;48.048;-1.928;2023-04-27T10:43:16;100690.56;;;12.34;100.00
45050;BME280;61798;48.048;-1.928;2023-04-27T10:45:27;100690.97;;;12.31;100.00
45050;BME280;61798;48.048;-1.928;2023-04-27T10:47:39;100688.09;;;12.26;100.00
45050;BME280;61798;48.048;-1.928;2023-04-27T10:49:47;100693.00;;;12.22;100.00
45050;BME280;61798;48.048;-1.928;2023-04-27T10:51:56;100701.06;;;12.22;100.00
45050;BME280;61798;48.048;-1.928;2023-04-27T10:54:04;100689.09;;;12.25;100.00
45050;BME280;61798;48.048;-1.928;2023-04-27T10:56:11;100693.66;;;12.31;100.00
45050;BME280;61798;48.048;-1.928;2023-04-27T10:58:21;100692.81;;;12.31;100.00
45050;BME280;61798;48.048;-1.928;2023-04-27T11:00:38;100692.41;;;12.27;100.00
45050;BME280;61798;48.048;-1.928;2023-04-27T11:02:48;100682.31;;;12.36;100.00
45050;BME280;61798;48.048;-1.928;2023-04-27T11:04:55;100669.28;;;12.26;100.00
45050;BME280;61798;48.048;-1.928;2023-04-27T11:07:03;100647.16;;;12.24;100.00